createdAt,value
2022-12-09T00:00:43.974Z,35.30
2022-12-09T00:03:21.689Z,33.20
2022-12-09T00:05:50.348Z,33.30
2022-12-09T00:08:17.238Z,28.30
2022-12-09T00:10:44.909Z,30.10
2022-12-09T00:13:11.791Z,32.80
2022-12-09T00:15:42.438Z,33.50
2022-12-09T00:18:09.674Z,34.80
2022-12-09T00:20:36.702Z,33.20
2022-12-09T00:23:03.923Z,33.00
2022-12-09T00:25:31.087Z,29.30
2022-12-09T00:27:58.244Z,32.60
2022-12-09T00:30:25.627Z,29.50
2022-12-09T00:32:52.683Z,30.00
2022-12-09T00:35:19.570Z,29.80
2022-12-09T00:37:47.034Z,28.90
2022-12-09T00:40:16.374Z,27.70
2022-12-09T00:42:43.223Z,26.50
2022-12-09T00:45:10.425Z,29.00
2022-12-09T00:47:37.341Z,30.00
2022-12-09T00:50:06.564Z,32.60
2022-12-09T00:52:34.172Z,35.00
2022-12-09T00:55:01.041Z,33.30
2022-12-09T00:57:27.973Z,31.80
2022-12-09T00:59:54.739Z,34.80
2022-12-09T01:02:21.931Z,34.30
2022-12-09T01:04:52.347Z,33.50
2022-12-09T01:07:19.396Z,32.60
2022-12-09T01:09:46.591Z,33.80
2022-12-09T01:12:13.687Z,34.50
2022-12-09T01:14:40.616Z,36.60
2022-12-09T01:17:07.599Z,37.30
2022-12-09T01:19:34.538Z,41.60
2022-12-09T01:22:01.313Z,32.50
2022-12-09T01:24:28.178Z,36.70
2022-12-09T01:26:55.264Z,34.60
2022-12-09T01:29:22.142Z,36.80
2022-12-09T01:31:49.299Z,41.00
2022-12-09T01:34:16.416Z,35.90
2022-12-09T01:36:43.415Z,33.00
2022-12-09T01:39:10.994Z,36.60
2022-12-09T01:41:38.245Z,36.40
2022-12-09T01:44:16.225Z,35.40
2022-12-09T01:46:44.476Z,35.90
2022-12-09T01:49:17.726Z,38.20
2022-12-09T01:51:51.513Z,35.10
2022-12-09T01:54:18.434Z,35.60
2022-12-09T01:56:45.366Z,36.80
2022-12-09T01:59:14.573Z,35.60
2022-12-09T02:01:47.160Z,40.10
2022-12-09T02:04:14.418Z,39.40
2022-12-09T02:06:41.536Z,46.60
2022-12-09T02:09:10.345Z,43.10
2022-12-09T02:11:54.680Z,40.60
2022-12-09T02:14:38.766Z,45.50
2022-12-09T02:21:08.962Z,53.00
2022-12-09T02:23:53.015Z,45.40
2022-12-09T02:26:55.234Z,43.90
2022-12-09T02:29:52.295Z,44.20
2022-12-09T02:32:50.890Z,39.30
2022-12-09T02:35:53.053Z,37.50
2022-12-09T02:38:26.159Z,38.40
2022-12-09T02:41:03.373Z,36.20
2022-12-09T02:43:36.741Z,36.10
2022-12-09T02:46:09.589Z,36.40
2022-12-09T02:48:41.614Z,38.50
2022-12-09T02:51:14.204Z,38.80
2022-12-09T02:53:44.081Z,34.60
2022-12-09T02:56:14.125Z,34.60
2022-12-09T02:58:41.363Z,38.50
2022-12-09T03:02:01.497Z,37.70
2022-12-09T03:04:30.594Z,36.60
2022-12-09T03:07:13.968Z,41.50
2022-12-09T03:09:47.248Z,39.70
2022-12-09T03:12:18.676Z,50.60
2022-12-09T03:14:52.790Z,42.40
2022-12-09T03:17:31.704Z,44.60
2022-12-09T03:20:12.826Z,43.10
2022-12-09T03:22:43.319Z,46.90
2022-12-09T03:25:23.820Z,48.40
2022-12-09T03:27:59.983Z,43.80
2022-12-09T03:30:30.214Z,48.80
2022-12-09T03:32:57.973Z,44.30
2022-12-09T03:35:41.886Z,50.10
2022-12-09T03:38:14.190Z,49.50
2022-12-09T03:40:41.973Z,46.40
2022-12-09T03:43:37.365Z,44.70
2022-12-09T03:46:04.527Z,53.40
2022-12-09T03:48:32.015Z,60.30
2022-12-09T03:51:11.785Z,56.50
2022-12-09T03:54:20.879Z,57.50
2022-12-09T03:56:53.859Z,66.00
2022-12-09T03:59:24.397Z,63.90
2022-12-09T04:01:52.076Z,75.50
2022-12-09T04:04:19.271Z,73.10
2022-12-09T04:06:48.175Z,81.00
2022-12-09T04:09:17.175Z,77.40
2022-12-09T04:11:44.076Z,84.10
2022-12-09T04:14:15.478Z,96.00
2022-12-09T04:16:44.494Z,97.20
2022-12-09T04:19:11.798Z,98.80
2022-12-09T04:21:39.182Z,82.60
2022-12-09T04:24:07.106Z,85.80
2022-12-09T04:26:34.265Z,82.20
2022-12-09T04:29:01.405Z,108.10
2022-12-09T04:31:28.297Z,76.60
2022-12-09T04:33:55.134Z,90.50
2022-12-09T04:36:21.937Z,87.10
2022-12-09T04:38:51.034Z,79.40
2022-12-09T04:41:18.156Z,66.50
2022-12-09T04:43:45.677Z,70.90
2022-12-09T04:46:16.249Z,76.10
2022-12-09T04:48:44.459Z,74.70
2022-12-09T04:51:14.337Z,52.30
2022-12-09T04:53:41.527Z,76.20
2022-12-09T04:56:14.039Z,51.10
2022-12-09T04:58:41.706Z,51.90
2022-12-09T05:01:11.430Z,52.70
2022-12-09T05:03:39.206Z,57.50
2022-12-09T05:06:11.011Z,66.30
2022-12-09T05:08:39.381Z,69.70
2022-12-09T05:11:07.116Z,57.10
2022-12-09T05:13:34.315Z,51.20
2022-12-09T05:16:06.027Z,50.90
2022-12-09T05:18:36.895Z,48.00
2022-12-09T05:21:10.359Z,47.10
2022-12-09T05:23:38.488Z,37.60
2022-12-09T05:26:09.399Z,39.40
2022-12-09T05:28:36.719Z,41.00
2022-12-09T05:31:07.783Z,41.20
2022-12-09T05:33:35.164Z,39.40
2022-12-09T05:36:03.217Z,39.10
2022-12-09T05:38:30.613Z,42.00
2022-12-09T05:41:00.618Z,44.30
2022-12-09T05:43:27.723Z,43.60
2022-12-09T05:45:55.062Z,44.30
2022-12-09T05:48:22.705Z,43.40
2022-12-09T05:51:27.853Z,35.80
2022-12-09T05:54:00.276Z,47.60
2022-12-09T05:56:28.304Z,43.60
2022-12-09T05:58:56.475Z,47.30
2022-12-09T06:01:26.415Z,44.90
2022-12-09T06:03:55.214Z,43.20
2022-12-09T06:06:27.634Z,44.20
2022-12-09T06:08:57.943Z,40.60
2022-12-09T06:11:26.158Z,35.70
2022-12-09T06:13:54.163Z,42.40
2022-12-09T06:16:22.493Z,44.70
2022-12-09T06:18:50.462Z,42.00
2022-12-09T06:21:19.250Z,52.20
2022-12-09T06:23:47.589Z,58.70
2022-12-09T06:26:29.696Z,58.60
2022-12-09T06:28:58.377Z,50.60
2022-12-09T06:31:27.485Z,49.00
2022-12-09T06:33:57.163Z,46.30
2022-12-09T06:36:27.891Z,47.60
2022-12-09T06:38:56.630Z,44.40
2022-12-09T06:41:24.473Z,46.30
2022-12-09T06:43:51.480Z,47.30
2022-12-09T06:46:22.625Z,48.20
2022-12-09T06:48:50.476Z,84.60
2022-12-09T06:51:18.554Z,54.90
2022-12-09T06:53:46.979Z,51.30
2022-12-09T06:56:15.110Z,52.10
2022-12-09T06:58:44.503Z,52.60
2022-12-09T07:01:16.432Z,47.20
2022-12-09T07:03:46.750Z,38.50
2022-12-09T07:06:35.523Z,40.30
2022-12-09T07:09:06.799Z,38.30
2022-12-09T07:11:34.395Z,54.50
2022-12-09T07:14:02.926Z,55.00
2022-12-09T07:16:30.295Z,45.00
2022-12-09T07:18:58.360Z,44.20
2022-12-09T07:21:26.248Z,53.20
2022-12-09T07:23:54.652Z,41.70
2022-12-09T07:26:21.675Z,52.90
2022-12-09T07:28:52.489Z,53.40
2022-12-09T07:31:26.565Z,51.80
2022-12-09T07:33:57.657Z,53.90
2022-12-09T07:36:27.982Z,53.90
2022-12-09T07:39:12.085Z,47.50
2022-12-09T07:41:39.467Z,46.60
2022-12-09T07:44:06.855Z,52.70
2022-12-09T07:46:34.393Z,52.20
2022-12-09T07:49:04.512Z,48.40
2022-12-09T07:51:32.622Z,52.50
2022-12-09T07:53:59.698Z,52.00
2022-12-09T07:56:28.404Z,46.90
2022-12-09T07:58:56.679Z,58.80
2022-12-09T08:01:28.376Z,60.10
2022-12-09T08:03:56.832Z,50.50
2022-12-09T08:06:27.224Z,51.60
2022-12-09T08:08:58.775Z,48.10
2022-12-09T08:11:29.245Z,48.80
2022-12-09T08:13:59.728Z,40.30
2022-12-09T08:16:27.578Z,42.30
2022-12-09T08:18:55.619Z,43.30
2022-12-09T08:21:29.971Z,49.00
2022-12-09T08:24:00.665Z,53.30
2022-12-09T08:26:30.686Z,45.60
2022-12-09T08:28:58.418Z,60.60
2022-12-09T08:31:27.437Z,52.20
2022-12-09T08:33:55.686Z,51.90
2022-12-09T08:36:27.429Z,45.00
2022-12-09T08:38:58.020Z,52.20
2022-12-09T08:41:34.596Z,55.20
2022-12-09T08:44:08.018Z,51.90
2022-12-09T08:46:37.345Z,43.80
2022-12-09T08:49:06.348Z,49.70
2022-12-09T08:51:34.282Z,45.00
2022-12-09T08:54:02.699Z,40.70
2022-12-09T08:56:30.847Z,43.00
2022-12-09T08:58:58.038Z,48.40
2022-12-09T09:01:32.279Z,57.00
2022-12-09T09:04:13.424Z,52.40
2022-12-09T09:06:43.625Z,57.70
2022-12-09T09:09:13.363Z,55.20
2022-12-09T09:11:42.219Z,48.80
2022-12-09T09:14:12.664Z,55.50
2022-12-09T09:16:42.257Z,56.20
2022-12-09T09:19:18.502Z,43.10
2022-12-09T09:21:45.748Z,42.10
2022-12-09T09:24:17.462Z,41.90
2022-12-09T09:26:45.077Z,37.40
2022-12-09T09:29:15.101Z,39.00
2022-12-09T09:31:42.091Z,47.10
2022-12-09T09:34:10.207Z,54.40
2022-12-09T09:36:37.609Z,57.00
2022-12-09T09:39:04.600Z,49.80
2022-12-09T09:41:46.318Z,48.20
2022-12-09T09:44:33.794Z,48.50
2022-12-09T09:47:05.594Z,52.00
2022-12-09T09:50:03.885Z,50.70
2022-12-09T09:52:34.260Z,54.90
2022-12-09T09:55:13.968Z,54.30
2022-12-09T09:57:47.921Z,63.70
2022-12-09T10:00:32.508Z,62.90
2022-12-09T10:03:13.937Z,67.40
2022-12-09T10:05:53.919Z,46.90
2022-12-09T10:09:05.977Z,52.70
2022-12-09T10:11:46.080Z,53.80
2022-12-09T10:14:39.212Z,55.80
2022-12-09T10:17:29.691Z,51.80
2022-12-09T10:20:24.427Z,56.30
2022-12-09T10:23:12.944Z,54.80
2022-12-09T10:26:11.144Z,53.70
2022-12-09T10:28:45.781Z,56.40
2022-12-09T10:31:13.607Z,49.60
2022-12-09T10:33:41.000Z,45.80
2022-12-09T10:36:35.449Z,51.90
2022-12-09T10:39:05.359Z,39.70
2022-12-09T10:42:02.206Z,53.70
2022-12-09T10:44:29.656Z,40.00
2022-12-09T10:47:04.188Z,47.10
2022-12-09T10:49:34.119Z,43.20
2022-12-09T10:52:01.620Z,45.70
2022-12-09T10:54:44.124Z,47.40
2022-12-09T10:57:14.478Z,60.90
2022-12-09T10:59:59.310Z,67.40
2022-12-09T11:02:28.012Z,64.80
2022-12-09T11:04:56.951Z,57.40
2022-12-09T11:07:26.544Z,47.60
2022-12-09T11:09:54.336Z,45.20
2022-12-09T11:12:30.890Z,47.80
2022-12-09T11:15:21.311Z,40.60
2022-12-09T11:18:04.692Z,41.50
2022-12-09T11:20:34.624Z,43.00
2022-12-09T11:23:05.431Z,39.40
2022-12-09T11:25:36.883Z,45.20
2022-12-09T11:28:44.691Z,40.90
2022-12-09T11:31:29.337Z,36.60
2022-12-09T11:34:03.288Z,40.10
2022-12-09T11:36:40.440Z,41.60
2022-12-09T11:39:29.344Z,40.90
2022-12-09T11:42:18.196Z,41.40
2022-12-09T11:45:01.808Z,43.80
2022-12-09T11:48:13.555Z,38.50
2022-12-09T11:50:30.690Z,42.80
2022-12-09T11:53:08.354Z,40.40
2022-12-09T11:55:46.147Z,33.90
2022-12-09T11:58:25.422Z,37.70
2022-12-09T12:01:03.656Z,37.50
2022-12-09T12:04:01.191Z,36.70
2022-12-09T12:06:44.854Z,34.90
2022-12-09T12:09:27.734Z,37.80
2022-12-09T12:12:18.747Z,48.30
2022-12-09T12:14:46.480Z,39.60
2022-12-09T12:17:31.217Z,35.20
2022-12-09T12:19:58.442Z,39.30
2022-12-09T12:22:56.268Z,35.80
2022-12-09T12:25:30.694Z,31.60
2022-12-09T12:28:09.247Z,33.40
2022-12-09T12:31:07.242Z,35.80
2022-12-09T12:34:15.968Z,34.90
2022-12-09T12:37:07.713Z,38.10
2022-12-09T12:39:43.485Z,40.50
2022-12-09T12:42:41.158Z,37.70
2022-12-09T12:45:49.051Z,40.60
2022-12-09T12:48:52.869Z,40.20
2022-12-09T12:51:48.506Z,41.50
2022-12-09T12:55:11.568Z,43.00
2022-12-09T12:58:16.291Z,42.90
2022-12-09T13:01:30.514Z,43.10
2022-12-09T13:04:23.531Z,39.30
2022-12-09T13:07:14.440Z,37.40
2022-12-09T13:10:33.758Z,34.00
2022-12-09T13:13:03.496Z,66.00
2022-12-09T13:15:44.935Z,75.40
2022-12-09T13:18:18.822Z,71.70
2022-12-09T13:20:51.238Z,82.40
2022-12-09T13:23:28.158Z,60.70
2022-12-09T13:26:02.346Z,52.60
2022-12-09T13:28:38.348Z,70.20
2022-12-09T13:31:09.376Z,76.70
2022-12-09T13:34:16.592Z,89.70
2022-12-09T13:36:46.388Z,59.30
2022-12-09T13:39:38.589Z,79.70
2022-12-09T13:42:46.699Z,82.70
2022-12-09T13:45:22.900Z,53.30
2022-12-09T13:47:52.674Z,27.20
2022-12-09T13:50:34.096Z,46.90
2022-12-09T13:53:31.883Z,35.80
2022-12-09T13:56:07.718Z,55.50
2022-12-09T13:58:59.418Z,54.40
2022-12-09T14:01:54.142Z,75.10
2022-12-09T14:04:33.174Z,58.20
2022-12-09T14:07:51.745Z,56.40
2022-12-09T14:10:44.946Z,36.40
2022-12-09T14:13:30.864Z,70.50
2022-12-09T14:16:26.579Z,34.30
2022-12-09T14:18:57.352Z,37.40
2022-12-09T14:21:30.981Z,103.60
2022-12-09T14:24:06.996Z,82.60
2022-12-09T14:26:36.627Z,50.40
2022-12-09T14:29:03.887Z,75.80
2022-12-09T14:31:57.630Z,49.60
2022-12-09T14:34:47.932Z,47.40
2022-12-09T14:37:32.687Z,67.40
2022-12-09T14:40:39.427Z,85.60
2022-12-09T14:43:36.274Z,51.50
2022-12-09T14:46:31.258Z,67.00
2022-12-09T14:49:19.979Z,31.80
2022-12-09T14:51:57.067Z,54.30
2022-12-09T14:54:32.367Z,46.00
2022-12-09T14:57:03.280Z,26.70
2022-12-09T14:59:31.395Z,26.70
2022-12-09T15:02:18.873Z,56.00
2022-12-09T15:04:48.212Z,60.20
2022-12-09T15:07:20.352Z,47.80
2022-12-09T15:09:58.812Z,47.50
2022-12-09T15:12:36.824Z,63.90
2022-12-09T15:15:07.429Z,50.60
2022-12-09T15:17:44.273Z,55.40
2022-12-09T15:20:30.270Z,46.10
2022-12-09T15:23:18.955Z,40.60
2022-12-09T15:25:55.835Z,42.20
2022-12-09T15:28:27.065Z,62.70
2022-12-09T15:31:03.357Z,52.70
2022-12-09T15:33:43.454Z,29.50
2022-12-09T15:36:38.268Z,92.20
2022-12-09T15:39:20.294Z,66.40
2022-12-09T15:42:09.598Z,49.50
2022-12-09T15:44:56.825Z,31.60
2022-12-09T15:47:38.294Z,45.70
2022-12-09T15:50:21.659Z,41.30
2022-12-09T15:55:32.361Z,46.40
2022-12-09T15:58:03.992Z,57.80
2022-12-09T16:00:31.257Z,51.40
2022-12-09T16:02:58.217Z,60.80
2022-12-09T16:05:25.445Z,61.10
2022-12-09T16:07:59.660Z,40.00
2022-12-09T16:10:28.862Z,33.10
2022-12-09T16:13:11.678Z,69.30
2022-12-09T16:16:01.800Z,70.50
2022-12-09T16:18:34.775Z,148.70
2022-12-09T16:21:34.678Z,77.40
2022-12-09T16:24:11.333Z,62.30
2022-12-09T16:26:44.811Z,61.90
2022-12-09T16:29:28.511Z,54.70
2022-12-09T16:32:25.910Z,45.30
2022-12-09T16:35:19.330Z,38.50
2022-12-09T16:37:55.378Z,31.00
2022-12-09T16:40:25.045Z,25.30
2022-12-09T16:42:55.011Z,33.40
2022-12-09T16:45:33.383Z,35.90
2022-12-09T16:48:00.846Z,35.20
2022-12-09T16:50:42.536Z,62.50
2022-12-09T16:53:39.176Z,109.70
2022-12-09T16:56:06.501Z,56.60
2022-12-09T16:58:34.611Z,111.30
2022-12-09T17:01:04.019Z,74.40
2022-12-09T17:03:54.715Z,31.30
2022-12-09T17:06:21.545Z,28.10
2022-12-09T17:08:48.689Z,24.70
2022-12-09T17:11:16.568Z,27.20
2022-12-09T17:13:43.503Z,25.30
2022-12-09T17:16:10.510Z,26.70
2022-12-09T17:18:38.749Z,19.80
2022-12-09T17:21:10.203Z,24.80
2022-12-09T17:23:40.235Z,24.20
2022-12-09T17:26:11.459Z,26.60
2022-12-09T17:28:39.338Z,36.70
2022-12-09T17:31:13.508Z,72.70
2022-12-09T17:33:40.615Z,60.60
2022-12-09T17:36:07.952Z,34.10
2022-12-09T17:38:35.113Z,32.10
2022-12-09T17:41:05.859Z,30.20
2022-12-09T17:43:33.521Z,30.40
2022-12-09T17:46:02.212Z,30.20
2022-12-09T17:48:30.568Z,56.80
2022-12-09T17:50:57.667Z,48.90
2022-12-09T17:53:24.653Z,38.90
2022-12-09T17:55:51.498Z,38.50
2022-12-09T17:58:18.436Z,38.00
2022-12-09T18:00:47.213Z,47.90
2022-12-09T18:03:22.307Z,34.60
2022-12-09T18:06:00.045Z,31.90
2022-12-09T18:08:29.336Z,68.50
2022-12-09T18:10:56.284Z,46.00
2022-12-09T18:13:23.024Z,44.80
2022-12-09T18:15:54.227Z,70.00
2022-12-09T18:18:21.731Z,44.40
2022-12-09T18:20:48.504Z,31.70
2022-12-09T18:23:15.789Z,26.80
2022-12-09T18:25:42.595Z,24.00
2022-12-09T18:28:09.564Z,27.70
2022-12-09T18:30:39.152Z,57.60
2022-12-09T18:33:06.421Z,35.00
2022-12-09T18:35:33.705Z,37.40
2022-12-09T18:38:09.628Z,39.90
2022-12-09T18:40:59.973Z,25.80
2022-12-09T18:43:37.452Z,17.30
2022-12-09T18:46:14.457Z,21.80
2022-12-09T18:48:41.287Z,27.00
2022-12-09T18:51:18.059Z,23.70
2022-12-09T18:53:46.548Z,28.60
2022-12-09T18:56:15.003Z,34.60
2022-12-09T18:59:05.446Z,24.80
2022-12-09T19:01:30.699Z,28.80
2022-12-09T19:04:03.307Z,28.40
2022-12-09T19:06:36.613Z,24.10
2022-12-09T19:11:35.450Z,29.00
2022-12-09T19:14:04.265Z,37.50
2022-12-09T19:16:31.957Z,37.70
2022-12-09T19:19:05.512Z,32.60
2022-12-09T19:21:35.904Z,34.90
2022-12-09T19:24:02.737Z,26.90
2022-12-09T19:26:32.253Z,28.30
2022-12-09T19:29:04.593Z,28.20
2022-12-09T19:31:35.480Z,42.80
2022-12-09T19:34:12.742Z,45.60
2022-12-09T19:36:40.345Z,43.50
2022-12-09T19:39:08.858Z,49.00
2022-12-09T19:41:37.626Z,39.40
2022-12-09T19:44:06.018Z,36.40
2022-12-09T19:46:33.463Z,36.00
2022-12-09T19:49:00.468Z,34.90
2022-12-09T19:51:27.715Z,37.50
2022-12-09T19:53:57.931Z,32.10
2022-12-09T19:56:25.964Z,29.00
2022-12-09T19:58:53.938Z,25.60
2022-12-09T20:01:33.765Z,30.20
2022-12-09T20:04:25.492Z,28.80
2022-12-09T20:06:52.251Z,26.00
2022-12-09T20:09:23.595Z,26.30
2022-12-09T20:11:52.306Z,28.30
2022-12-09T20:14:19.709Z,25.70
2022-12-09T20:16:46.564Z,22.60
2022-12-09T20:19:13.379Z,23.70
2022-12-09T20:21:40.545Z,25.50
2022-12-09T20:24:08.508Z,22.90
2022-12-09T20:26:37.256Z,28.90
2022-12-09T20:29:08.912Z,41.50
2022-12-09T20:31:38.174Z,23.50
2022-12-09T20:34:11.117Z,26.90
2022-12-09T20:36:40.694Z,28.30
2022-12-09T20:39:16.833Z,37.00
2022-12-09T20:41:44.824Z,36.20
2022-12-09T20:44:13.439Z,29.00
2022-12-09T20:46:45.216Z,27.00
2022-12-09T20:49:12.163Z,30.60
2022-12-09T20:51:40.281Z,33.40
2022-12-09T20:54:09.300Z,39.80
2022-12-09T20:56:36.653Z,42.00
2022-12-09T20:59:05.923Z,38.20
2022-12-09T21:01:35.128Z,40.60
2022-12-09T21:04:05.199Z,33.30
2022-12-09T21:06:37.108Z,36.80
2022-12-09T21:09:08.728Z,37.90
2022-12-09T21:11:35.739Z,32.20
2022-12-09T21:14:06.064Z,39.70
2022-12-09T21:16:42.318Z,39.10
2022-12-09T21:19:14.836Z,43.10
2022-12-09T21:21:46.332Z,47.70
2022-12-09T21:24:14.655Z,44.10
2022-12-09T21:26:41.693Z,27.30
2022-12-09T21:29:10.731Z,30.70
2022-12-09T21:31:43.536Z,30.50
2022-12-09T21:34:10.540Z,46.10
2022-12-09T21:36:42.656Z,48.00
2022-12-09T21:39:14.912Z,45.00
2022-12-09T21:41:43.214Z,44.00
2022-12-09T21:44:17.304Z,42.70
2022-12-09T21:46:44.897Z,46.00
2022-12-09T21:49:13.060Z,38.10
2022-12-09T21:51:40.321Z,38.00
2022-12-09T21:54:07.121Z,43.20
2022-12-09T21:56:35.130Z,34.70
2022-12-09T21:59:04.377Z,27.60
2022-12-09T22:01:40.708Z,34.60
2022-12-09T22:04:11.700Z,35.50
2022-12-09T22:06:39.216Z,34.40
2022-12-09T22:09:07.485Z,24.50
2022-12-09T22:11:36.852Z,25.70
2022-12-09T22:14:05.975Z,22.90
2022-12-09T22:16:37.400Z,28.70
2022-12-09T22:19:07.735Z,33.20
2022-12-09T22:21:36.021Z,35.80
2022-12-09T22:24:06.319Z,36.90
2022-12-09T22:26:33.702Z,34.30
2022-12-09T22:29:03.352Z,28.00
2022-12-09T22:31:36.915Z,33.50
2022-12-09T22:34:08.197Z,32.10
2022-12-09T22:36:36.336Z,33.80
2022-12-09T22:39:17.509Z,32.30
2022-12-09T22:41:45.299Z,34.60
2022-12-09T22:44:14.905Z,30.40
2022-12-09T22:46:41.911Z,30.40
2022-12-09T22:49:12.685Z,36.40
2022-12-09T22:51:40.959Z,40.00
2022-12-09T22:54:08.828Z,27.30
2022-12-09T22:56:38.538Z,27.70
2022-12-09T22:59:05.744Z,21.60
2022-12-09T23:01:36.494Z,24.80
2022-12-09T23:04:05.832Z,44.20
2022-12-09T23:06:36.166Z,22.20
2022-12-09T23:09:04.638Z,20.70
2022-12-09T23:11:31.734Z,22.10
2022-12-09T23:13:59.353Z,18.40
2022-12-09T23:16:26.975Z,24.20
2022-12-09T23:18:58.618Z,18.40
2022-12-09T23:21:33.107Z,25.20
2022-12-09T23:24:04.879Z,14.30
2022-12-09T23:26:36.384Z,15.90
2022-12-09T23:29:05.947Z,16.50
2022-12-09T23:31:36.406Z,15.80
2022-12-09T23:34:05.957Z,32.80
2022-12-09T23:36:36.988Z,27.60
2022-12-09T23:39:09.092Z,21.40
2022-12-09T23:41:38.461Z,18.60
2022-12-09T23:44:15.682Z,20.00
2022-12-09T23:46:43.407Z,27.80
2022-12-09T23:49:10.355Z,23.30
2022-12-09T23:51:43.234Z,25.40
2022-12-09T23:54:13.850Z,21.40
2022-12-09T23:56:43.531Z,24.00
2022-12-09T23:59:13.002Z,18.50
